Time;durP1;ratioP1;P1;durP2;ratioP2;P2;SDS_P1;SDS_P2;PMS_P1;PMS_P2;Temp;Humidity;BMP_temperature;BMP_pressure;BME280_temperature;BME280_humidity;BME280_pressure;Samples;Min_cycle;Max_cycle;Signal;HPM_P1;HPM_P2
2020/12/03 00:01:09;;;;;;;14.75;3.08;;;22.10;99.90;;;;;;4998857;28;20121;-63
2020/12/03 00:03:47;;;;;;;19.20;3.40;;;22.00;99.90;;;;;;5014549;28;20089;-62
2020/12/03 00:06:28;;;;;;;11.77;2.60;;;21.80;99.90;;;;;;5013878;28;20049;-61
2020/12/03 00:09:09;;;;;;;13.52;2.78;;;21.70;99.90;;;;;;5014076;28;20463;-62
2020/12/03 00:11:42;;;;;;;9.73;2.60;;;21.70;99.90;;;;;;5014368;28;20054;-62
2020/12/03 00:14:10;;;;;;;13.10;2.47;;;21.50;99.90;;;;;;5013776;28;20026;-62
2020/12/03 00:16:38;;;;;;;16.42;3.08;;;21.60;99.90;;;;;;5013547;28;20037;-62
2020/12/03 00:19:08;;;;;;;14.57;2.92;;;21.70;99.90;;;;;;5013419;28;20104;-61
2020/12/03 00:21:43;;;;;;;;;;;21.70;99.90;;;;;;5070569;28;20039;-61
2020/12/03 00:24:12;;;;;;;14.57;2.55;;;21.70;99.90;;;;;;5114027;28;19922;-64
2020/12/03 00:26:40;;;;;;;12.77;3.23;;;21.70;99.90;;;;;;5114901;28;20028;-67
2020/12/03 00:29:08;;;;;;;25.20;3.72;;;21.60;99.90;;;;;;5113589;28;20023;-68
2020/12/03 00:31:36;;;;;;;16.83;3.25;;;21.60;99.90;;;;;;5121644;27;20100;-67
2020/12/03 00:34:10;;;;;;;14.82;2.53;;;21.60;99.90;;;;;;5136715;27;20025;-64
2020/12/03 00:36:38;;;;;;;14.98;3.22;;;21.60;99.90;;;;;;5136402;27;20490;-64
2020/12/03 00:39:08;;;;;;;13.63;3.50;;;21.80;99.90;;;;;;5118038;27;20118;-64
2020/12/03 00:41:36;;;;;;;18.13;2.95;;;21.90;99.90;;;;;;5136819;27;20138;-63
2020/12/03 00:44:04;;;;;;;13.93;2.90;;;22.10;99.90;;;;;;5136803;27;20391;-64
2020/12/03 00:46:33;;;;;;;16.15;3.95;;;22.20;99.90;;;;;;5137191;27;20019;-63
2020/12/03 00:49:01;;;;;;;15.13;3.08;;;22.20;99.90;;;;;;5137206;27;20069;-66
2020/12/03 00:51:29;;;;;;;16.08;3.45;;;22.10;99.90;;;;;;5136512;27;20416;-66
2020/12/03 00:53:56;;;;;;;18.77;3.45;;;21.80;99.90;;;;;;5136336;27;20030;-67
2020/12/03 00:56:24;;;;;;;12.80;2.88;;;21.40;99.90;;;;;;5118124;27;20044;-68
2020/12/03 00:58:51;;;;;;;15.20;3.10;;;21.30;99.90;;;;;;5136373;27;20432;-66
2020/12/03 01:01:21;;;;;;;17.77;3.20;;;21.40;99.90;;;;;;5136359;27;20088;-65
2020/12/03 01:03:49;;;;;;;13.02;3.20;;;21.30;99.90;;;;;;5135646;27;20198;-62
2020/12/03 01:06:39;;;;;;;16.65;3.15;;;21.30;99.90;;;;;;5136110;27;20084;-62
2020/12/03 01:09:06;;;;;;;9.60;1.70;;;21.20;99.90;;;;;;5113396;28;20039;-62
2020/12/03 01:11:34;;;;;;;8.50;1.90;;;21.10;99.90;;;;;;5113353;28;20036;-64
2020/12/03 01:14:01;;;;;;;10.05;1.85;;;21.10;99.90;;;;;;5113253;28;20031;-62
2020/12/03 01:16:28;;;;;;;10.48;2.10;;;21.00;99.90;;;;;;5112935;28;20455;-61
2020/12/03 01:18:56;;;;;;;7.88;1.45;;;21.00;99.90;;;;;;5113268;28;20043;-61
2020/12/03 01:21:23;;;;;;;7.07;1.55;;;21.00;99.90;;;;;;5113420;28;20028;-61
2020/12/03 01:23:51;;;;;;;8.90;2.15;;;21.10;99.90;;;;;;5112884;28;20043;-61
2020/12/03 01:26:19;;;;;;;6.80;1.70;;;21.30;99.90;;;;;;5112695;28;20107;-63
2020/12/03 01:28:47;;;;;;;8.00;1.45;;;21.40;99.90;;;;;;5112731;28;20070;-63
2020/12/03 01:31:15;;;;;;;8.85;1.90;;;21.60;99.90;;;;;;5112574;28;20395;-63
2020/12/03 01:33:43;;;;;;;8.52;1.80;;;21.60;99.90;;;;;;5112620;28;20031;-64
2020/12/03 01:36:14;;;;;;;9.00;1.92;;;21.60;99.90;;;;;;5112502;28;20032;-63
2020/12/03 01:38:43;;;;;;;6.78;1.73;;;21.40;99.90;;;;;;5113192;28;20028;-64
2020/12/03 01:41:10;;;;;;;11.75;2.08;;;21.50;99.90;;;;;;5134738;27;20031;-64
2020/12/03 01:43:45;;;;;;;9.50;2.03;;;21.50;99.90;;;;;;5135058;27;20443;-66
2020/12/03 01:46:13;;;;;;;10.95;2.20;;;21.30;99.90;;;;;;5135313;27;20467;-64
2020/12/03 01:48:53;;;;;;;13.93;2.35;;;21.20;99.90;;;;;;5135125;27;20031;-64
2020/12/03 01:51:28;;;;;;;18.27;3.15;;;21.30;99.90;;;;;;5108740;27;20349;-64
2020/12/03 01:54:00;;;;;;;15.90;3.28;;;21.30;99.90;;;;;;5134726;27;20050;-61
2020/12/03 01:57:05;;;;;;;16.52;3.10;;;21.40;99.90;;;;;;5134743;27;20042;-65
2020/12/03 01:59:39;;;;;;;14.27;3.08;;;21.50;99.90;;;;;;5111973;28;20036;-66
2020/12/03 02:02:10;;;;;;;19.30;3.22;;;21.80;99.90;;;;;;5078292;28;20042;-64
2020/12/03 02:04:38;;;;;;;13.32;2.80;;;21.90;99.90;;;;;;5112213;28;20035;-64
2020/12/03 02:07:11;;;;;;;16.75;3.08;;;22.00;99.90;;;;;;5111824;28;20361;-63
2020/12/03 02:09:39;;;;;;;10.80;3.35;;;22.00;99.90;;;;;;5111855;28;20040;-62
2020/12/03 02:12:07;;;;;;;15.10;2.95;;;22.10;99.90;;;;;;5111806;28;20028;-62
2020/12/03 02:14:35;;;;;;;14.90;2.75;;;22.10;99.90;;;;;;5061067;28;20039;-67
2020/12/03 02:17:03;;;;;;;18.90;3.60;;;22.20;99.90;;;;;;5111759;28;20031;-65
2020/12/03 02:19:33;;;;;;;16.58;3.30;;;22.20;99.90;;;;;;5111629;28;20117;-65
2020/12/03 02:22:07;;;;;;;11.10;3.73;;;22.20;99.90;;;;;;5111660;28;20383;-63
2020/12/03 02:24:40;;;;;;;14.15;3.28;;;22.10;99.90;;;;;;5111935;28;20592;-62
2020/12/03 02:27:10;;;;;;;18.73;3.42;;;21.90;99.90;;;;;;5111638;28;20146;-62
2020/12/03 02:29:37;;;;;;;17.77;3.37;;;21.70;99.90;;;;;;5114993;27;20122;-62
2020/12/03 02:32:06;;;;;;;14.68;3.13;;;21.50;99.90;;;;;;5134636;27;20375;-61
2020/12/03 02:34:33;;;;;;;18.55;2.97;;;21.50;99.90;;;;;;5134350;27;20023;-66
2020/12/03 02:37:03;;;;;;;17.90;3.42;;;21.50;99.90;;;;;;5134237;27;20038;-65
2020/12/03 02:39:33;;;;;;;14.93;2.90;;;21.50;99.90;;;;;;5134181;27;20023;-61
2020/12/03 02:42:02;;;;;;;14.77;3.22;;;21.50;99.90;;;;;;5134862;27;20023;-63
2020/12/03 02:44:30;;;;;;;13.90;3.15;;;21.60;99.90;;;;;;5135510;27;20367;-64
2020/12/03 02:46:58;;;;;;;18.30;3.47;;;21.70;99.90;;;;;;5134153;27;20027;-64
2020/12/03 02:49:25;;;;;;;20.90;3.92;;;21.60;99.90;;;;;;5134152;27;20031;-65
2020/12/03 02:51:53;;;;;;;24.83;3.72;;;21.70;99.90;;;;;;5133774;27;20027;-65
2020/12/03 02:54:20;;;;;;;22.45;3.92;;;21.70;99.90;;;;;;5115330;27;20340;-64
2020/12/03 02:56:48;;;;;;;21.67;3.47;;;21.70;99.90;;;;;;5133640;27;20043;-67
2020/12/03 02:59:15;;;;;;;16.60;4.05;;;21.60;99.90;;;;;;5134032;27;20026;-66
2020/12/03 03:01:43;;;;;;;22.08;4.05;;;21.50;99.90;;;;;;5134629;27;20403;-65
2020/12/03 03:04:10;;;;;;;20.85;3.20;;;21.50;99.90;;;;;;5135032;27;20039;-65
2020/12/03 03:06:40;;;;;;;15.60;3.50;;;21.50;99.90;;;;;;5133678;27;20109;-66
2020/12/03 03:09:08;;;;;;;19.20;3.60;;;21.60;99.90;;;;;;5133798;27;20023;-68
2020/12/03 03:11:36;;;;;;;17.50;3.40;;;21.50;99.90;;;;;;5134913;27;20218;-68
2020/12/03 03:14:05;;;;;;;21.38;3.95;;;21.50;99.90;;;;;;5115535;28;20023;-67
2020/12/03 03:16:33;;;;;;;15.45;3.28;;;21.50;99.90;;;;;;5133481;28;20104;-67
2020/12/03 03:19:01;;;;;;;16.45;3.40;;;21.50;99.90;;;;;;5133580;28;20482;-65
2020/12/03 03:21:29;;;;;;;18.80;3.83;;;21.60;99.90;;;;;;5133843;28;20142;-63
2020/12/03 03:23:56;;;;;;;16.52;3.25;;;21.50;99.90;;;;;;5133771;28;20047;-61
2020/12/03 03:26:25;;;;;;;14.85;3.15;;;21.20;99.90;;;;;;5136437;27;20023;-62
2020/12/03 03:28:52;;;;;;;12.95;2.80;;;21.10;99.90;;;;;;5119115;27;20024;-61
2020/12/03 03:31:20;;;;;;;16.48;4.03;;;21.10;99.90;;;;;;5137614;27;20023;-63
2020/12/03 03:33:49;;;;;;;17.50;3.20;;;21.20;99.90;;;;;;5137539;27;20446;-63
2020/12/03 03:36:17;;;;;;;10.07;3.03;;;21.10;99.90;;;;;;5137477;27;20027;-64
2020/12/03 03:38:45;;;;;;;16.63;3.38;;;21.20;99.90;;;;;;5137677;27;20416;-64
2020/12/03 03:41:13;;;;;;;17.58;3.60;;;21.30;99.90;;;;;;5137644;27;20102;-64
2020/12/03 03:43:41;;;;;;;18.63;4.05;;;21.40;99.90;;;;;;5137625;27;20386;-63
2020/12/03 03:46:08;;;;;;;16.38;3.45;;;21.50;99.90;;;;;;5118598;27;20032;-64
2020/12/03 03:48:36;;;;;;;22.10;3.45;;;21.50;99.90;;;;;;5118994;27;20019;-66
2020/12/03 03:51:05;;;;;;;19.45;3.65;;;21.30;99.90;;;;;;5137342;27;20030;-66
2020/12/03 03:53:32;;;;;;;20.15;3.47;;;21.30;99.90;;;;;;5119841;27;20059;-67
2020/12/03 03:56:00;;;;;;;17.38;3.50;;;21.30;99.90;;;;;;5131644;27;20052;-67
2020/12/03 03:58:28;;;;;;;18.00;3.40;;;21.20;99.90;;;;;;5116906;28;20569;-66
2020/12/03 04:00:56;;;;;;;21.08;3.80;;;21.20;99.90;;;;;;5116873;28;20058;-63
2020/12/03 04:03:24;;;;;;;18.17;3.97;;;21.10;99.90;;;;;;5116753;28;20016;-67
2020/12/03 04:05:55;;;;;;;20.45;4.65;;;21.10;99.90;;;;;;5116742;28;20046;-66
2020/12/03 04:08:25;;;;;;;16.17;2.97;;;21.00;99.90;;;;;;5116807;28;20517;-67
2020/12/03 04:10:56;;;;;;;21.05;4.38;;;21.00;99.90;;;;;;5116688;28;20020;-64
2020/12/03 04:13:25;;;;;;;20.85;4.43;;;21.10;99.90;;;;;;5116226;28;20027;-63
2020/12/03 04:15:54;;;;;;;18.10;3.37;;;21.00;99.90;;;;;;5116436;28;20024;-63
2020/12/03 04:18:26;;;;;;;17.75;3.58;;;20.80;99.90;;;;;;5116409;28;20281;-68
2020/12/03 04:20:59;;;;;;;23.65;4.88;;;20.80;99.90;;;;;;5116518;28;20047;-65
2020/12/03 04:23:30;;;;;;;19.90;3.53;;;20.80;99.90;;;;;;5116356;28;20067;-62
2020/12/03 04:25:57;;;;;;;20.70;4.03;;;20.80;99.90;;;;;;5116272;28;20111;-67
2020/12/03 04:28:25;;;;;;;18.63;4.03;;;20.80;99.90;;;;;;5116229;28;20078;-66
2020/12/03 04:30:55;;;;;;;15.95;3.97;;;20.80;99.90;;;;;;5116398;28;20532;-66
2020/12/03 04:33:23;;;;;;;24.55;4.07;;;20.80;99.90;;;;;;5080261;28;20063;-69
2020/12/03 04:35:51;;;;;;;21.30;3.97;;;20.80;99.90;;;;;;5116038;28;20493;-69
2020/12/03 04:38:19;;;;;;;18.15;3.72;;;20.80;99.90;;;;;;5114430;28;20052;-70
2020/12/03 04:40:48;;;;;;;21.60;4.30;;;20.90;99.90;;;;;;5115709;28;20023;-70
2020/12/03 04:43:29;;;;;;;24.05;2.78;;;21.00;99.90;;;;;;5097397;28;20391;-70
2020/12/03 04:46:22;;;;;;;21.65;4.07;;;21.00;99.90;;;;;;5115972;28;20030;-70
2020/12/03 04:49:23;;;;;;;19.70;4.50;;;20.90;99.90;;;;;;5073555;28;20068;-70
2020/12/03 04:52:23;;;;;;;18.10;3.65;;;20.90;99.90;;;;;;5052815;28;20108;-70
2020/12/03 04:55:21;;;;;;;12.63;2.73;;;20.90;99.90;;;;;;5053287;28;20033;-70
2020/12/03 04:58:21;;;;;;;23.25;4.20;;;20.90;99.90;;;;;;4996741;28;20045;-71
2020/12/03 05:01:01;;;;;;;25.85;4.80;;;20.90;99.90;;;;;;4958322;28;20031;-71
2020/12/03 05:04:07;;;;;;;22.38;3.92;;;20.90;99.90;;;;;;4975011;28;20038;-70
2020/12/03 05:06:57;;;;;;;17.88;3.95;;;20.80;99.90;;;;;;4949675;29;20036;-69
2020/12/03 05:09:51;;;;;;;21.50;4.57;;;20.80;99.90;;;;;;4955214;29;20044;-70
2020/12/03 05:12:27;;;;;;;19.88;4.88;;;20.70;99.90;;;;;;4928625;29;20059;-70
2020/12/03 05:15:05;;;;;;;24.55;4.72;;;20.60;99.90;;;;;;4936351;29;20032;-70
2020/12/03 05:17:52;;;;;;;19.70;3.92;;;20.60;99.90;;;;;;4936344;29;20032;-70
2020/12/03 05:20:37;;;;;;;13.85;3.55;;;20.50;99.90;;;;;;4949966;29;20043;-67
2020/12/03 05:23:27;;;;;;;21.55;5.05;;;20.50;99.90;;;;;;4955041;29;20039;-67
2020/12/03 05:25:57;;;;;;;18.33;4.07;;;20.70;99.90;;;;;;4935734;29;20032;-67
2020/12/03 05:28:40;;;;;;;19.27;3.70;;;20.70;99.90;;;;;;4944231;29;20035;-67
2020/12/03 05:31:36;;;;;;;14.32;3.17;;;20.80;99.90;;;;;;4961114;28;20035;-67
2020/12/03 05:34:15;;;;;;;20.00;3.75;;;20.80;99.90;;;;;;4974186;28;20482;-67
2020/12/03 05:37:04;;;;;;;15.90;3.33;;;20.80;99.90;;;;;;4979641;28;20038;-63
2020/12/03 05:39:39;;;;;;;18.23;3.83;;;20.80;99.90;;;;;;5006694;28;20030;-64
2020/12/03 05:42:10;;;;;;;14.25;3.25;;;20.80;99.90;;;;;;5013665;28;20363;-66
2020/12/03 05:44:52;;;;;;;15.73;3.03;;;20.90;99.90;;;;;;5053356;28;20037;-65
2020/12/03 05:47:29;;;;;;;14.63;3.13;;;20.80;99.90;;;;;;5052825;28;20035;-62
2020/12/03 05:50:07;;;;;;;23.02;4.32;;;20.90;99.90;;;;;;5052319;28;20416;-64
2020/12/03 05:52:35;;;;;;;18.15;3.90;;;20.90;99.90;;;;;;5052397;28;20033;-63
2020/12/03 05:55:10;;;;;;;12.80;3.03;;;21.00;99.90;;;;;;5052438;28;20442;-69
2020/12/03 05:57:42;;;;;;;16.23;3.58;;;21.00;99.90;;;;;;5066916;28;20059;-65
2020/12/03 06:00:20;;;;;;;22.00;4.13;;;21.10;99.90;;;;;;5072342;28;20116;-62
2020/12/03 06:03:18;;;;;;;18.17;3.63;;;21.10;99.90;;;;;;5072222;28;20041;-63
2020/12/03 06:06:18;;;;;;;20.33;4.65;;;21.00;99.90;;;;;;5126953;27;20042;-62
2020/12/03 06:09:25;;;;;;;25.67;3.65;;;21.00;99.90;;;;;;5135279;27;20031;-63
2020/12/03 06:12:18;;;;;;;20.65;3.83;;;20.90;99.90;;;;;;5112753;28;20034;-63
2020/12/03 06:15:16;;;;;;;18.42;3.40;;;20.90;99.90;;;;;;5113027;28;20122;-63
2020/12/03 06:18:22;;;;;;;21.40;3.45;;;20.80;99.90;;;;;;5071941;28;20451;-62
2020/12/03 06:21:17;;;;;;;25.73;5.13;;;20.80;99.90;;;;;;5012044;28;20026;-62
2020/12/03 06:24:13;;;;;;;15.48;3.55;;;20.70;99.90;;;;;;4997617;28;20506;-63
2020/12/03 06:27:19;;;;;;;20.27;3.83;;;20.60;99.90;;;;;;4992495;28;20034;-63
2020/12/03 06:30:04;;;;;;;14.38;3.03;;;20.60;99.90;;;;;;4992572;28;20042;-62
2020/12/03 06:33:09;;;;;;;22.55;3.65;;;20.70;99.90;;;;;;4992802;28;20450;-62
2020/12/03 06:35:59;;;;;;;14.68;3.58;;;20.70;99.90;;;;;;4972825;28;20041;-62
2020/12/03 06:38:55;;;;;;;18.00;3.85;;;20.70;99.90;;;;;;4972833;28;20032;-62
2020/12/03 06:41:47;;;;;;;18.23;3.28;;;20.80;99.90;;;;;;4973591;28;20031;-62
2020/12/03 06:44:21;;;;;;;21.10;3.55;;;20.80;99.90;;;;;;4934411;29;20051;-63
2020/12/03 06:47:24;;;;;;;20.85;4.07;;;20.80;99.90;;;;;;4934299;29;20119;-63
2020/12/03 06:50:30;;;;;;;16.95;3.83;;;20.80;99.90;;;;;;4934341;29;20039;-62
2020/12/03 06:53:32;;;;;;;16.98;3.78;;;20.80;99.90;;;;;;4934149;29;20039;-62
2020/12/03 06:56:38;;;;;;;15.75;3.78;;;20.80;99.90;;;;;;4900144;29;20044;-61
2020/12/03 06:59:44;;;;;;;20.77;3.33;;;20.80;99.90;;;;;;4934150;29;20500;-62
2020/12/03 07:02:50;;;;;;;23.80;5.00;;;20.70;99.90;;;;;;4933980;29;20424;-62
2020/12/03 07:05:56;;;;;;;20.60;3.75;;;20.70;99.90;;;;;;4935739;29;20044;-61
2020/12/03 07:09:02;;;;;;;17.67;3.40;;;20.70;99.90;;;;;;4991714;28;20035;-63
2020/12/03 07:11:55;;;;;;;22.88;3.42;;;20.70;99.90;;;;;;4972059;28;20039;-63
2020/12/03 07:15:02;;;;;;;25.58;3.70;;;20.80;99.90;;;;;;4976108;28;20185;-65
2020/12/03 07:18:02;;;;;;;16.23;3.50;;;20.80;99.90;;;;;;4965682;28;20046;-66
2020/12/03 07:20:48;;;;;;;;;;;20.80;99.90;;;;;;4972507;28;20042;-66
2020/12/03 07:23:35;;;;;;;22.38;4.65;;;20.90;99.90;;;;;;4980303;28;19958;-65
2020/12/03 07:26:14;;;;;;;21.25;5.32;;;20.90;99.90;;;;;;5019444;28;20120;-64
2020/12/03 07:28:47;;;;;;;17.48;3.85;;;20.90;99.90;;;;;;5050819;28;20025;-66
2020/12/03 07:31:30;;;;;;;22.95;5.65;;;21.00;99.90;;;;;;5050485;28;20033;-66
2020/12/03 07:34:36;;;;;;;20.80;4.72;;;21.00;99.90;;;;;;5050212;28;20029;-65
2020/12/03 07:37:32;;;;;;;18.85;5.90;;;21.00;99.90;;;;;;4971640;28;20045;-66
2020/12/03 07:40:01;;;;;;;23.73;5.60;;;20.90;99.90;;;;;;4971973;28;20085;-62
2020/12/03 07:42:29;;;;;;;22.20;3.45;;;20.90;99.90;;;;;;4972085;28;20411;-63
2020/12/03 07:44:58;;;;;;;21.17;3.85;;;20.80;99.90;;;;;;4971718;28;20031;-63
2020/12/03 07:47:33;;;;;;;23.48;3.13;;;20.80;99.90;;;;;;4977066;28;20126;-62
2020/12/03 07:50:22;;;;;;;25.20;4.60;;;20.70;99.90;;;;;;5010812;28;20094;-62
2020/12/03 07:53:20;;;;;;;22.35;4.20;;;20.70;99.90;;;;;;5010475;28;20042;-62
2020/12/03 07:55:48;;;;;;;19.77;4.28;;;20.70;99.90;;;;;;5010244;28;20053;-63
2020/12/03 07:58:41;;;;;;;20.50;3.67;;;20.70;99.90;;;;;;5030117;28;20076;-62
2020/12/03 08:01:31;;;;;;;21.00;3.72;;;20.60;99.90;;;;;;5010242;28;20537;-64
2020/12/03 08:04:21;;;;;;;24.15;5.15;;;20.70;99.90;;;;;;5010168;28;20030;-63
2020/12/03 08:07:08;;;;;;;22.75;4.15;;;20.70;99.90;;;;;;5015319;28;20038;-63
2020/12/03 08:09:43;;;;;;;22.77;3.45;;;20.60;99.90;;;;;;5050171;28;20040;-62
2020/12/03 08:12:19;;;;;;;25.33;3.60;;;20.60;99.90;;;;;;5051798;28;20029;-63
2020/12/03 08:14:54;;;;;;;20.98;4.63;;;20.70;99.90;;;;;;5036868;28;20509;-59
2020/12/03 08:17:44;;;;;;;25.92;4.85;;;20.60;99.90;;;;;;5053517;28;20060;-61
2020/12/03 08:20:16;;;;;;;25.17;4.13;;;20.60;99.90;;;;;;5053340;28;20025;-63
2020/12/03 08:22:48;;;;;;;18.33;3.67;;;20.60;99.90;;;;;;5053618;28;20091;-63
2020/12/03 08:25:28;;;;;;;26.33;4.78;;;20.60;99.90;;;;;;5053323;28;20053;-65
2020/12/03 08:28:00;;;;;;;20.67;3.80;;;20.60;99.90;;;;;;5053972;28;20036;-65
2020/12/03 08:30:37;;;;;;;24.13;4.47;;;20.50;99.90;;;;;;5020421;28;20045;-65
2020/12/03 08:33:34;;;;;;;27.15;3.85;;;20.60;99.90;;;;;;5053137;28;20102;-78
2020/12/03 08:36:08;;;;;;;20.80;3.53;;;20.60;99.90;;;;;;5013728;28;20520;-68
2020/12/03 08:38:40;;;;;;;24.42;4.72;;;20.60;99.90;;;;;;5030494;28;20560;-67
2020/12/03 08:41:11;;;;;;;22.77;4.22;;;20.50;99.90;;;;;;5033746;28;20034;-64
2020/12/03 08:43:58;;;;;;;;;;;20.50;99.90;;;;;;5033484;28;20021;-67
2020/12/03 08:46:30;;;;;;;24.48;4.45;;;20.50;99.90;;;;;;5042427;28;19911;-69
2020/12/03 08:48:58;;;;;;;23.15;3.63;;;20.50;99.90;;;;;;5093201;28;20024;-69
2020/12/03 08:51:26;;;;;;;21.80;3.95;;;20.50;99.90;;;;;;5076261;28;20059;-70
2020/12/03 08:53:54;;;;;;;22.17;4.50;;;20.50;99.90;;;;;;5092925;28;20043;-66
2020/12/03 08:56:30;;;;;;;21.85;3.90;;;20.50;99.90;;;;;;5093234;28;20051;-66
2020/12/03 08:59:18;;;;;;;21.63;4.00;;;20.50;99.90;;;;;;5092879;28;20081;-66
2020/12/03 09:02:01;;;;;;;22.77;4.22;;;20.50;99.90;;;;;;5092901;28;20027;-65
2020/12/03 09:04:33;;;;;;;20.48;4.00;;;20.50;99.90;;;;;;5092840;28;20020;-66
2020/12/03 09:07:05;;;;;;;22.15;4.28;;;20.40;99.90;;;;;;5092762;28;20032;-68
2020/12/03 09:09:36;;;;;;;25.00;4.45;;;20.40;99.90;;;;;;5075822;28;20114;-68
2020/12/03 09:12:07;;;;;;;18.15;4.10;;;20.40;99.90;;;;;;5093712;27;20460;-65
2020/12/03 09:14:38;;;;;;;25.02;4.32;;;20.40;99.90;;;;;;5135728;27;20019;-67
2020/12/03 09:17:08;;;;;;;;;;;20.40;99.90;;;;;;5136423;27;20543;-65
2020/12/03 09:19:36;;;;;;;30.85;4.78;;;20.40;99.90;;;;;;5136024;27;19903;-66
2020/12/03 09:22:07;;;;;;;23.50;4.18;;;20.40;99.90;;;;;;5135621;27;20023;-65
2020/12/03 09:24:38;;;;;;;28.02;4.10;;;20.40;99.90;;;;;;5116467;27;20072;-61
2020/12/03 09:27:08;;;;;;;25.10;4.25;;;20.40;99.90;;;;;;5135695;27;20124;-62
2020/12/03 09:29:35;;;;;;;;;;;20.40;99.90;;;;;;5135949;27;20379;-61
2020/12/03 09:32:07;;;;;;;26.27;4.85;;;20.30;99.90;;;;;;5136172;27;19948;-64
2020/12/03 09:34:37;;;;;;;21.10;4.38;;;20.30;99.90;;;;;;5135693;27;20467;-63
2020/12/03 09:37:07;;;;;;;28.13;5.03;;;20.30;99.90;;;;;;5116899;27;20035;-63
2020/12/03 09:39:36;;;;;;;24.13;4.70;;;20.30;99.90;;;;;;5135288;27;20113;-63
2020/12/03 09:42:11;;;;;;;23.92;3.83;;;20.30;99.90;;;;;;5100584;27;20422;-63
2020/12/03 09:44:40;;;;;;;29.45;5.00;;;20.20;99.90;;;;;;5118157;27;20019;-63
2020/12/03 09:47:14;;;;;;;24.40;5.15;;;20.30;99.90;;;;;;5135142;27;20021;-62
2020/12/03 09:49:44;;;;;;;29.50;5.45;;;20.20;99.90;;;;;;5135088;27;20031;-63
2020/12/03 09:52:15;;;;;;;20.70;3.47;;;20.30;99.90;;;;;;5135664;27;20107;-63
2020/12/03 09:54:43;;;;;;;24.33;3.78;;;20.30;99.90;;;;;;5135244;27;20051;-62
2020/12/03 09:57:12;;;;;;;24.05;5.10;;;20.20;99.90;;;;;;5118364;27;20054;-62
2020/12/03 09:59:42;;;;;;;21.48;4.10;;;20.20;99.90;;;;;;5114603;28;20023;-63
2020/12/03 10:02:45;;;;;;;19.05;3.83;;;20.10;99.90;;;;;;5114076;28;20020;-62
2020/12/03 10:05:38;;;;;;;19.45;4.15;;;20.10;99.90;;;;;;5114453;28;20032;-61
2020/12/03 10:08:32;;;;;;;22.70;4.03;;;20.00;99.90;;;;;;5114558;28;20019;-62
2020/12/03 10:11:38;;;;;;;27.40;4.65;;;20.10;99.90;;;;;;5114363;28;20034;-64
2020/12/03 10:14:44;;;;;;;21.02;4.90;;;20.10;99.90;;;;;;5071598;28;20404;-65
2020/12/03 10:17:18;;;;;;;24.65;4.28;;;20.20;99.90;;;;;;5051204;28;20440;-65
2020/12/03 10:19:47;;;;;;;27.25;4.35;;;20.10;99.90;;;;;;5051228;28;20028;-64
2020/12/03 10:22:44;;;;;;;18.10;4.25;;;20.10;99.90;;;;;;5051212;28;20025;-65
2020/12/03 10:25:21;;;;;;;25.35;3.70;;;20.10;99.90;;;;;;5051133;28;20031;-64
2020/12/03 10:28:13;;;;;;;23.55;4.72;;;20.10;99.90;;;;;;5051530;28;20061;-65
2020/12/03 10:30:41;;;;;;;22.80;4.50;;;20.10;99.90;;;;;;5051574;28;20491;-64
2020/12/03 10:33:20;;;;;;;20.85;4.40;;;20.10;99.90;;;;;;5034185;28;20056;-65
2020/12/03 10:35:51;;;;;;;28.17;6.00;;;20.10;99.90;;;;;;5050408;28;20166;-64
2020/12/03 10:38:31;;;;;;;;;;;20.00;99.90;;;;;;5051380;28;20467;-64
2020/12/03 10:41:03;;;;;;;19.53;3.73;;;20.10;99.90;;;;;;5050791;28;20013;-64
2020/12/03 10:43:40;;;;;;;20.98;4.10;;;20.00;99.90;;;;;;5051179;28;20262;-64
2020/12/03 10:46:16;;;;;;;32.00;4.88;;;20.10;99.90;;;;;;5091418;28;20391;-64
2020/12/03 10:48:49;;;;;;;28.60;4.47;;;20.10;99.90;;;;;;5110985;28;20443;-64
2020/12/03 10:51:20;;;;;;;25.73;5.47;;;20.00;99.90;;;;;;5094811;28;20159;-64
2020/12/03 10:53:50;;;;;;;23.83;4.93;;;20.00;99.90;;;;;;5113477;28;20024;-65
2020/12/03 10:56:26;;;;;;;23.83;5.72;;;20.10;99.90;;;;;;5122016;27;20073;-65
2020/12/03 10:59:37;;;;;;;21.92;4.05;;;20.00;99.90;;;;;;5133890;27;20035;-66
2020/12/03 11:02:24;;;;;;;28.23;5.05;;;20.10;99.90;;;;;;5111242;28;20065;-65
2020/12/03 11:04:53;;;;;;;31.13;4.45;;;20.10;99.90;;;;;;5070590;28;20033;-65
2020/12/03 11:07:21;;;;;;;24.70;4.63;;;20.10;99.90;;;;;;5070702;28;20033;-65
2020/12/03 11:09:54;;;;;;;22.50;4.68;;;20.10;99.90;;;;;;5070580;28;20032;-65
2020/12/03 11:12:26;;;;;;;30.02;4.28;;;20.10;99.90;;;;;;5070432;28;20448;-64
2020/12/03 11:14:59;;;;;;;19.92;4.20;;;20.10;99.90;;;;;;5070336;28;20052;-65
2020/12/03 11:18:01;;;;;;;31.45;4.85;;;20.10;99.90;;;;;;5070937;28;20036;-65
2020/12/03 11:20:34;;;;;;;22.05;4.28;;;20.10;99.90;;;;;;5053566;28;20105;-65
2020/12/03 11:23:08;;;;;;;29.15;4.55;;;20.10;99.90;;;;;;5070515;28;20257;-65
2020/12/03 11:25:37;;;;;;;21.65;4.15;;;20.10;99.90;;;;;;5070493;28;20033;-65
2020/12/03 11:28:28;;;;;;;26.70;4.43;;;20.10;99.90;;;;;;5070419;28;20040;-65
2020/12/03 11:30:57;;;;;;;;;;;20.10;99.90;;;;;;5070864;28;20159;-65
2020/12/03 11:33:26;;;;;;;30.83;5.85;;;20.10;99.90;;;;;;5086956;28;19908;-65
2020/12/03 11:36:15;;;;;;;28.45;6.50;;;20.10;99.90;;;;;;5113113;28;20083;-65
2020/12/03 11:38:53;;;;;;;20.15;4.82;;;20.10;99.90;;;;;;5133266;28;20027;-65
2020/12/03 11:44:29;;;;;;;29.25;7.05;;;20.10;99.90;;;;;;5133205;28;20027;-65
2020/12/03 11:49:44;;;;;;;26.23;7.22;;;20.10;99.90;;;;;;5114688;28;20048;-64
2020/12/03 11:52:18;;;;;;;35.72;11.60;;;20.10;99.90;;;;;;5114747;28;20052;-64
2020/12/03 11:54:47;;;;;;;35.42;11.98;;;20.10;99.90;;;;;;5114667;28;20039;-64
2020/12/03 11:57:17;;;;;;;29.85;10.32;;;20.10;99.90;;;;;;5114449;28;20480;-65
2020/12/03 11:59:46;;;;;;;26.70;10.93;;;20.10;99.90;;;;;;5114569;28;20096;-64
2020/12/03 12:02:14;;;;;;;27.45;10.70;;;20.00;99.90;;;;;;5114451;28;20043;-64
2020/12/03 12:05:03;;;;;;;27.88;10.88;;;20.00;99.90;;;;;;5114352;28;20034;-64
2020/12/03 12:07:36;;;;;;;27.67;11.18;;;20.00;99.90;;;;;;5114354;28;20114;-64
2020/12/03 12:10:39;;;;;;;24.65;11.48;;;20.00;99.90;;;;;;5114708;28;20071;-65
2020/12/03 12:13:29;;;;;;;25.42;10.73;;;19.90;99.90;;;;;;5114444;28;20594;-64
2020/12/03 12:16:28;;;;;;;28.48;10.73;;;19.90;99.90;;;;;;5114283;28;20515;-65
2020/12/03 12:19:25;;;;;;;27.98;11.13;;;19.90;99.90;;;;;;5065983;28;20468;-65
2020/12/03 12:21:56;;;;;;;26.92;10.75;;;19.80;99.90;;;;;;5118345;27;20033;-65
2020/12/03 12:24:39;;;;;;;;;;;19.80;99.90;;;;;;5136775;27;20031;-65
2020/12/03 12:27:21;;;;;;;26.25;11.77;;;19.80;99.90;;;;;;5101043;27;19910;-64
2020/12/03 12:30:11;;;;;;;27.48;11.15;;;19.80;99.90;;;;;;5136963;27;20025;-64
2020/12/03 12:32:47;;;;;;;25.47;11.43;;;19.70;99.90;;;;;;5090704;27;20031;-65
2020/12/03 12:35:15;;;;;;;21.75;10.63;;;19.70;99.90;;;;;;5044767;28;20039;-65
2020/12/03 12:37:43;;;;;;;28.55;11.25;;;19.80;99.90;;;;;;5043367;28;20071;-65
2020/12/03 12:40:12;;;;;;;24.23;11.75;;;19.70;99.90;;;;;;5093214;28;20020;-65
2020/12/03 12:42:39;;;;;;;34.28;13.48;;;19.80;99.90;;;;;;5076377;28;20031;-65
2020/12/03 12:45:07;;;;;;;23.88;11.32;;;19.80;99.90;;;;;;5093232;28;20476;-65
2020/12/03 12:47:35;;;;;;;28.02;13.07;;;19.80;99.90;;;;;;5093152;28;20103;-65
2020/12/03 12:50:03;;;;;;;30.02;12.10;;;19.80;99.90;;;;;;5092969;28;20028;-65
2020/12/03 12:52:31;;;;;;;25.15;12.48;;;19.80;99.90;;;;;;5092983;28;20043;-64
2020/12/03 12:54:59;;;;;;;27.20;12.88;;;19.80;99.90;;;;;;5060299;28;20043;-64
2020/12/03 12:57:28;;;;;;;27.95;12.45;;;19.80;99.90;;;;;;5092170;28;20093;-65
2020/12/03 12:59:56;;;;;;;27.33;12.77;;;19.80;99.90;;;;;;5092560;28;20041;-64
2020/12/03 13:02:23;;;;;;;28.63;13.35;;;19.80;99.90;;;;;;5092938;28;20020;-65
2020/12/03 13:04:52;;;;;;;31.98;12.48;;;19.80;99.90;;;;;;5076006;28;20020;-65
2020/12/03 13:07:20;;;;;;;21.92;12.50;;;19.80;99.90;;;;;;5092674;28;20392;-64
2020/12/03 13:09:48;;;;;;;29.85;13.82;;;19.80;99.90;;;;;;5092758;28;20107;-65
2020/12/03 13:12:17;;;;;;;26.58;14.32;;;19.80;99.90;;;;;;5092753;28;20119;-65
2020/12/03 13:14:45;;;;;;;25.25;13.38;;;19.80;99.90;;;;;;5092784;28;20031;-64
2020/12/03 13:17:13;;;;;;;29.95;14.02;;;19.70;99.90;;;;;;5092587;28;20032;-64
2020/12/03 13:19:41;;;;;;;23.65;13.70;;;19.70;99.90;;;;;;5092510;28;20377;-64
2020/12/03 13:22:09;;;;;;;27.80;14.88;;;19.70;99.90;;;;;;5092459;28;20016;-64
2020/12/03 13:24:37;;;;;;;32.33;15.45;;;19.60;99.90;;;;;;5099943;27;20059;-64
2020/12/03 13:27:05;;;;;;;27.20;14.13;;;19.60;99.90;;;;;;5135613;27;20015;-64
2020/12/03 13:29:33;;;;;;;28.08;15.00;;;19.70;99.90;;;;;;5135818;27;20024;-64
2020/12/03 13:32:02;;;;;;;25.27;14.45;;;19.70;99.90;;;;;;5135745;27;20023;-64